sensor_id;sensor_type;location;lat;lon;timestamp;P1;durP1;ratioP1;P2;durP2;ratioP2
52838;SDS011;39219;53.678;9.856;2022-12-24T00:01:36;26.05;;;9.10;;
52838;SDS011;39219;53.678;9.856;2022-12-24T00:04:02;26.63;;;9.27;;
52838;SDS011;39219;53.678;9.856;2022-12-24T00:06:29;26.60;;;8.70;;
52838;SDS011;39219;53.678;9.856;2022-12-24T00:08:56;26.52;;;9.27;;
52838;SDS011;39219;53.678;9.856;2022-12-24T00:11:22;23.45;;;8.48;;
52838;SDS011;39219;53.678;9.856;2022-12-24T00:13:48;26.63;;;9.10;;
52838;SDS011;39219;53.678;9.856;2022-12-24T00:16:16;20.80;;;8.52;;
52838;SDS011;39219;53.678;9.856;2022-12-24T00:18:43;26.60;;;9.52;;
52838;SDS011;39219;53.678;9.856;2022-12-24T00:21:09;28.33;;;9.02;;
52838;SDS011;39219;53.678;9.856;2022-12-24T00:23:36;28.13;;;9.35;;
52838;SDS011;39219;53.678;9.856;2022-12-24T00:26:02;29.52;;;9.35;;
52838;SDS011;39219;53.678;9.856;2022-12-24T00:28:28;23.58;;;9.23;;
52838;SDS011;39219;53.678;9.856;2022-12-24T00:30:55;23.92;;;9.38;;
52838;SDS011;39219;53.678;9.856;2022-12-24T00:33:23;25.90;;;9.27;;
52838;SDS011;39219;53.678;9.856;2022-12-24T00:35:50;29.35;;;10.40;;
52838;SDS011;39219;53.678;9.856;2022-12-24T00:38:17;28.98;;;10.18;;
52838;SDS011;39219;53.678;9.856;2022-12-24T00:40:43;27.20;;;10.10;;
52838;SDS011;39219;53.678;9.856;2022-12-24T00:43:10;28.23;;;9.50;;
52838;SDS011;39219;53.678;9.856;2022-12-24T00:45:36;26.48;;;9.32;;
52838;SDS011;39219;53.678;9.856;2022-12-24T00:48:03;30.45;;;9.73;;
52838;SDS011;39219;53.678;9.856;2022-12-24T00:50:31;25.30;;;9.93;;
52838;SDS011;39219;53.678;9.856;2022-12-24T00:52:57;27.80;;;9.50;;
52838;SDS011;39219;53.678;9.856;2022-12-24T00:55:24;33.90;;;9.70;;
52838;SDS011;39219;53.678;9.856;2022-12-24T00:57:50;28.10;;;9.43;;
52838;SDS011;39219;53.678;9.856;2022-12-24T01:00:17;28.25;;;9.70;;
52838;SDS011;39219;53.678;9.856;2022-12-24T01:02:43;27.88;;;9.27;;
52838;SDS011;39219;53.678;9.856;2022-12-24T01:05:10;30.05;;;10.15;;
52838;SDS011;39219;53.678;9.856;2022-12-24T01:07:39;26.98;;;9.70;;
52838;SDS011;39219;53.678;9.856;2022-12-24T01:10:08;31.77;;;10.05;;
52838;SDS011;39219;53.678;9.856;2022-12-24T01:12:36;29.63;;;10.73;;
52838;SDS011;39219;53.678;9.856;2022-12-24T01:15:03;30.60;;;10.30;;
52838;SDS011;39219;53.678;9.856;2022-12-24T01:17:30;27.38;;;10.27;;
52838;SDS011;39219;53.678;9.856;2022-12-24T01:19:57;32.40;;;10.43;;
52838;SDS011;39219;53.678;9.856;2022-12-24T01:22:24;27.30;;;10.05;;
52838;SDS011;39219;53.678;9.856;2022-12-24T01:24:52;28.65;;;9.70;;
52838;SDS011;39219;53.678;9.856;2022-12-24T01:27:19;33.45;;;10.48;;
52838;SDS011;39219;53.678;9.856;2022-12-24T01:29:45;34.40;;;9.75;;
52838;SDS011;39219;53.678;9.856;2022-12-24T01:32:12;38.67;;;10.82;;
52838;SDS011;39219;53.678;9.856;2022-12-24T01:34:38;28.88;;;9.57;;
52838;SDS011;39219;53.678;9.856;2022-12-24T01:37:05;30.92;;;9.82;;
52838;SDS011;39219;53.678;9.856;2022-12-24T01:39:31;33.80;;;10.68;;
52838;SDS011;39219;53.678;9.856;2022-12-24T01:41:59;32.40;;;10.20;;
52838;SDS011;39219;53.678;9.856;2022-12-24T01:44:44;28.38;;;10.20;;
52838;SDS011;39219;53.678;9.856;2022-12-24T01:47:14;32.03;;;10.93;;
52838;SDS011;39219;53.678;9.856;2022-12-24T01:49:47;30.95;;;9.95;;
52838;SDS011;39219;53.678;9.856;2022-12-24T01:52:18;31.90;;;9.77;;
52838;SDS011;39219;53.678;9.856;2022-12-24T01:54:48;30.23;;;10.18;;
52838;SDS011;39219;53.678;9.856;2022-12-24T01:57:20;30.48;;;11.18;;
52838;SDS011;39219;53.678;9.856;2022-12-24T01:59:50;34.15;;;11.15;;
52838;SDS011;39219;53.678;9.856;2022-12-24T02:02:18;29.10;;;10.35;;
52838;SDS011;39219;53.678;9.856;2022-12-24T02:04:48;30.02;;;10.65;;
52838;SDS011;39219;53.678;9.856;2022-12-24T02:07:18;34.30;;;11.20;;
52838;SDS011;39219;53.678;9.856;2022-12-24T02:09:45;34.42;;;11.52;;
52838;SDS011;39219;53.678;9.856;2022-12-24T02:12:14;30.67;;;10.63;;
52838;SDS011;39219;53.678;9.856;2022-12-24T02:14:42;34.65;;;11.25;;
52838;SDS011;39219;53.678;9.856;2022-12-24T02:17:11;32.10;;;11.77;;
52838;SDS011;39219;53.678;9.856;2022-12-24T02:19:50;32.60;;;11.30;;
52838;SDS011;39219;53.678;9.856;2022-12-24T02:22:46;31.73;;;10.90;;
52838;SDS011;39219;53.678;9.856;2022-12-24T02:25:33;31.60;;;11.20;;
52838;SDS011;39219;53.678;9.856;2022-12-24T02:28:11;30.73;;;11.30;;
52838;SDS011;39219;53.678;9.856;2022-12-24T02:30:49;31.75;;;11.15;;
52838;SDS011;39219;53.678;9.856;2022-12-24T02:33:24;31.45;;;10.70;;
52838;SDS011;39219;53.678;9.856;2022-12-24T02:35:55;29.65;;;10.95;;
52838;SDS011;39219;53.678;9.856;2022-12-24T02:38:27;31.10;;;10.23;;
52838;SDS011;39219;53.678;9.856;2022-12-24T02:40:58;28.67;;;10.95;;
52838;SDS011;39219;53.678;9.856;2022-12-24T02:43:28;27.30;;;10.38;;
52838;SDS011;39219;53.678;9.856;2022-12-24T02:46:02;31.83;;;11.57;;
52838;SDS011;39219;53.678;9.856;2022-12-24T02:48:32;25.83;;;10.48;;
52838;SDS011;39219;53.678;9.856;2022-12-24T02:51:03;30.65;;;11.77;;
52838;SDS011;39219;53.678;9.856;2022-12-24T02:53:32;28.60;;;10.85;;
52838;SDS011;39219;53.678;9.856;2022-12-24T03:01:33;30.98;;;10.20;;
52838;SDS011;39219;53.678;9.856;2022-12-24T03:04:11;34.33;;;11.75;;
52838;SDS011;39219;53.678;9.856;2022-12-24T03:07:05;28.08;;;11.10;;
52838;SDS011;39219;53.678;9.856;2022-12-24T03:09:42;30.05;;;10.57;;
52838;SDS011;39219;53.678;9.856;2022-12-24T03:12:18;28.15;;;11.13;;
52838;SDS011;39219;53.678;9.856;2022-12-24T03:14:49;23.92;;;10.65;;
52838;SDS011;39219;53.678;9.856;2022-12-24T03:17:18;29.48;;;11.38;;
52838;SDS011;39219;53.678;9.856;2022-12-24T03:19:45;29.00;;;10.65;;
52838;SDS011;39219;53.678;9.856;2022-12-24T03:22:12;27.20;;;10.52;;
52838;SDS011;39219;53.678;9.856;2022-12-24T03:24:41;27.05;;;10.50;;
52838;SDS011;39219;53.678;9.856;2022-12-24T03:27:07;26.38;;;10.70;;
52838;SDS011;39219;53.678;9.856;2022-12-24T03:29:37;25.23;;;10.25;;
52838;SDS011;39219;53.678;9.856;2022-12-24T03:32:05;27.40;;;10.55;;
52838;SDS011;39219;53.678;9.856;2022-12-24T03:34:33;23.40;;;9.68;;
52838;SDS011;39219;53.678;9.856;2022-12-24T03:36:59;26.88;;;10.45;;
52838;SDS011;39219;53.678;9.856;2022-12-24T03:39:26;27.30;;;10.98;;
52838;SDS011;39219;53.678;9.856;2022-12-24T03:41:52;25.60;;;10.02;;
52838;SDS011;39219;53.678;9.856;2022-12-24T03:44:19;23.60;;;9.80;;
52838;SDS011;39219;53.678;9.856;2022-12-24T03:46:45;25.73;;;10.35;;
52838;SDS011;39219;53.678;9.856;2022-12-24T03:49:11;24.20;;;9.60;;
52838;SDS011;39219;53.678;9.856;2022-12-24T03:51:39;26.38;;;9.50;;
52838;SDS011;39219;53.678;9.856;2022-12-24T03:54:06;23.40;;;9.18;;
52838;SDS011;39219;53.678;9.856;2022-12-24T03:56:32;22.73;;;9.00;;
52838;SDS011;39219;53.678;9.856;2022-12-24T03:58:59;24.73;;;9.00;;
52838;SDS011;39219;53.678;9.856;2022-12-24T04:01:25;24.45;;;9.05;;
52838;SDS011;39219;53.678;9.856;2022-12-24T04:03:51;26.63;;;9.65;;
52838;SDS011;39219;53.678;9.856;2022-12-24T04:06:18;21.17;;;9.38;;
52838;SDS011;39219;53.678;9.856;2022-12-24T04:08:46;20.95;;;8.82;;
52838;SDS011;39219;53.678;9.856;2022-12-24T04:11:13;22.95;;;8.90;;
52838;SDS011;39219;53.678;9.856;2022-12-24T04:13:41;23.42;;;8.90;;
52838;SDS011;39219;53.678;9.856;2022-12-24T04:16:08;20.88;;;8.85;;
52838;SDS011;39219;53.678;9.856;2022-12-24T04:18:36;22.67;;;8.98;;
52838;SDS011;39219;53.678;9.856;2022-12-24T04:21:04;21.60;;;8.90;;
52838;SDS011;39219;53.678;9.856;2022-12-24T04:23:33;23.95;;;9.20;;
52838;SDS011;39219;53.678;9.856;2022-12-24T04:26:02;20.30;;;8.25;;
52838;SDS011;39219;53.678;9.856;2022-12-24T04:28:30;23.83;;;9.15;;
52838;SDS011;39219;53.678;9.856;2022-12-24T04:30:58;21.15;;;8.45;;
52838;SDS011;39219;53.678;9.856;2022-12-24T04:33:25;23.10;;;8.75;;
52838;SDS011;39219;53.678;9.856;2022-12-24T04:35:52;22.35;;;8.35;;
52838;SDS011;39219;53.678;9.856;2022-12-24T04:38:19;22.50;;;8.82;;
52838;SDS011;39219;53.678;9.856;2022-12-24T04:40:45;21.98;;;9.10;;
52838;SDS011;39219;53.678;9.856;2022-12-24T04:43:13;21.30;;;8.88;;
52838;SDS011;39219;53.678;9.856;2022-12-24T04:45:39;20.67;;;8.25;;
52838;SDS011;39219;53.678;9.856;2022-12-24T04:48:06;19.90;;;7.95;;
52838;SDS011;39219;53.678;9.856;2022-12-24T04:50:32;23.20;;;8.18;;
52838;SDS011;39219;53.678;9.856;2022-12-24T04:52:58;19.77;;;8.35;;
52838;SDS011;39219;53.678;9.856;2022-12-24T04:55:25;23.15;;;8.48;;
52838;SDS011;39219;53.678;9.856;2022-12-24T04:57:51;19.27;;;7.78;;
52838;SDS011;39219;53.678;9.856;2022-12-24T05:00:19;19.08;;;8.15;;
52838;SDS011;39219;53.678;9.856;2022-12-24T05:02:46;20.77;;;8.18;;
52838;SDS011;39219;53.678;9.856;2022-12-24T05:05:12;22.00;;;8.05;;
52838;SDS011;39219;53.678;9.856;2022-12-24T05:07:39;18.30;;;8.02;;
52838;SDS011;39219;53.678;9.856;2022-12-24T05:10:06;18.30;;;7.53;;
52838;SDS011;39219;53.678;9.856;2022-12-24T05:12:35;16.83;;;7.43;;
52838;SDS011;39219;53.678;9.856;2022-12-24T05:15:01;16.85;;;7.25;;
52838;SDS011;39219;53.678;9.856;2022-12-24T05:17:29;17.73;;;8.25;;
52838;SDS011;39219;53.678;9.856;2022-12-24T05:19:56;16.80;;;7.32;;
52838;SDS011;39219;53.678;9.856;2022-12-24T05:22:22;18.42;;;7.25;;
52838;SDS011;39219;53.678;9.856;2022-12-24T05:25:08;19.73;;;7.57;;
52838;SDS011;39219;53.678;9.856;2022-12-24T05:27:52;16.25;;;7.22;;
52838;SDS011;39219;53.678;9.856;2022-12-24T05:30:19;17.63;;;7.07;;
52838;SDS011;39219;53.678;9.856;2022-12-24T05:32:47;17.33;;;7.25;;
52838;SDS011;39219;53.678;9.856;2022-12-24T05:35:13;18.20;;;7.43;;
52838;SDS011;39219;53.678;9.856;2022-12-24T05:37:39;17.35;;;7.40;;
52838;SDS011;39219;53.678;9.856;2022-12-24T05:40:06;16.45;;;7.00;;
52838;SDS011;39219;53.678;9.856;2022-12-24T05:42:34;18.10;;;6.88;;
52838;SDS011;39219;53.678;9.856;2022-12-24T05:45:00;17.42;;;6.95;;
52838;SDS011;39219;53.678;9.856;2022-12-24T05:47:26;16.23;;;7.30;;
52838;SDS011;39219;53.678;9.856;2022-12-24T05:49:54;17.52;;;7.30;;
52838;SDS011;39219;53.678;9.856;2022-12-24T05:52:21;16.95;;;6.80;;
52838;SDS011;39219;53.678;9.856;2022-12-24T05:54:47;17.00;;;7.15;;
52838;SDS011;39219;53.678;9.856;2022-12-24T05:57:14;16.50;;;7.35;;
52838;SDS011;39219;53.678;9.856;2022-12-24T05:59:41;16.10;;;6.93;;
52838;SDS011;39219;53.678;9.856;2022-12-24T06:02:07;20.40;;;7.20;;
52838;SDS011;39219;53.678;9.856;2022-12-24T06:04:34;15.13;;;6.85;;
52838;SDS011;39219;53.678;9.856;2022-12-24T06:07:02;16.40;;;6.80;;
52838;SDS011;39219;53.678;9.856;2022-12-24T06:09:28;18.02;;;7.47;;
52838;SDS011;39219;53.678;9.856;2022-12-24T06:11:54;17.25;;;7.55;;
52838;SDS011;39219;53.678;9.856;2022-12-24T06:14:21;18.63;;;6.70;;
52838;SDS011;39219;53.678;9.856;2022-12-24T06:16:48;18.15;;;6.47;;
52838;SDS011;39219;53.678;9.856;2022-12-24T06:19:14;16.63;;;7.25;;
52838;SDS011;39219;53.678;9.856;2022-12-24T06:21:40;17.40;;;7.28;;
52838;SDS011;39219;53.678;9.856;2022-12-24T06:24:08;19.35;;;7.55;;
52838;SDS011;39219;53.678;9.856;2022-12-24T06:26:35;17.45;;;7.10;;
52838;SDS011;39219;53.678;9.856;2022-12-24T06:29:01;17.20;;;7.10;;
52838;SDS011;39219;53.678;9.856;2022-12-24T06:31:28;17.98;;;7.50;;
52838;SDS011;39219;53.678;9.856;2022-12-24T06:33:54;19.95;;;7.70;;
52838;SDS011;39219;53.678;9.856;2022-12-24T06:36:21;18.13;;;7.85;;
52838;SDS011;39219;53.678;9.856;2022-12-24T06:38:49;18.88;;;7.95;;
52838;SDS011;39219;53.678;9.856;2022-12-24T06:41:18;18.58;;;7.50;;
52838;SDS011;39219;53.678;9.856;2022-12-24T06:43:45;16.95;;;6.90;;
52838;SDS011;39219;53.678;9.856;2022-12-24T06:46:13;19.63;;;7.72;;
52838;SDS011;39219;53.678;9.856;2022-12-24T06:48:41;19.77;;;7.10;;
52838;SDS011;39219;53.678;9.856;2022-12-24T06:51:08;17.25;;;6.85;;
52838;SDS011;39219;53.678;9.856;2022-12-24T06:53:35;18.10;;;7.18;;
52838;SDS011;39219;53.678;9.856;2022-12-24T06:56:01;18.67;;;7.47;;
52838;SDS011;39219;53.678;9.856;2022-12-24T06:58:30;19.65;;;7.68;;
52838;SDS011;39219;53.678;9.856;2022-12-24T07:00:56;17.50;;;7.38;;
52838;SDS011;39219;53.678;9.856;2022-12-24T07:03:23;18.55;;;7.50;;
52838;SDS011;39219;53.678;9.856;2022-12-24T07:05:49;20.08;;;7.53;;
52838;SDS011;39219;53.678;9.856;2022-12-24T07:08:16;17.25;;;7.57;;
52838;SDS011;39219;53.678;9.856;2022-12-24T07:10:42;16.38;;;6.72;;
52838;SDS011;39219;53.678;9.856;2022-12-24T07:13:08;15.70;;;6.65;;
52838;SDS011;39219;53.678;9.856;2022-12-24T07:15:36;16.50;;;6.38;;
52838;SDS011;39219;53.678;9.856;2022-12-24T07:18:03;17.60;;;7.03;;
52838;SDS011;39219;53.678;9.856;2022-12-24T07:20:29;15.70;;;6.55;;
52838;SDS011;39219;53.678;9.856;2022-12-24T07:22:56;18.10;;;6.65;;
52838;SDS011;39219;53.678;9.856;2022-12-24T07:25:22;15.30;;;6.93;;
52838;SDS011;39219;53.678;9.856;2022-12-24T07:27:48;17.90;;;6.85;;
52838;SDS011;39219;53.678;9.856;2022-12-24T07:30:15;16.17;;;6.88;;
52838;SDS011;39219;53.678;9.856;2022-12-24T07:32:43;17.35;;;6.95;;
52838;SDS011;39219;53.678;9.856;2022-12-24T07:35:10;15.98;;;6.53;;
52838;SDS011;39219;53.678;9.856;2022-12-24T07:37:36;19.88;;;7.63;;
52838;SDS011;39219;53.678;9.856;2022-12-24T07:40:03;18.13;;;7.15;;
52838;SDS011;39219;53.678;9.856;2022-12-24T07:42:33;15.02;;;6.28;;
52838;SDS011;39219;53.678;9.856;2022-12-24T07:45:00;15.63;;;6.28;;
52838;SDS011;39219;53.678;9.856;2022-12-24T07:47:26;17.15;;;6.88;;
52838;SDS011;39219;53.678;9.856;2022-12-24T07:49:54;15.95;;;6.97;;
52838;SDS011;39219;53.678;9.856;2022-12-24T07:52:20;22.42;;;7.65;;
52838;SDS011;39219;53.678;9.856;2022-12-24T07:54:47;16.92;;;7.15;;
52838;SDS011;39219;53.678;9.856;2022-12-24T07:57:13;16.33;;;6.70;;
52838;SDS011;39219;53.678;9.856;2022-12-24T07:59:40;17.92;;;6.93;;
52838;SDS011;39219;53.678;9.856;2022-12-24T08:02:08;16.30;;;7.03;;
52838;SDS011;39219;53.678;9.856;2022-12-24T08:04:35;16.75;;;7.10;;
52838;SDS011;39219;53.678;9.856;2022-12-24T08:07:03;20.52;;;7.00;;
52838;SDS011;39219;53.678;9.856;2022-12-24T08:09:32;14.73;;;6.18;;
52838;SDS011;39219;53.678;9.856;2022-12-24T08:11:59;16.15;;;7.20;;
52838;SDS011;39219;53.678;9.856;2022-12-24T08:14:27;16.25;;;6.82;;
52838;SDS011;39219;53.678;9.856;2022-12-24T08:16:54;15.50;;;6.57;;
52838;SDS011;39219;53.678;9.856;2022-12-24T08:19:20;19.23;;;7.25;;
52838;SDS011;39219;53.678;9.856;2022-12-24T08:21:47;15.32;;;6.32;;
52838;SDS011;39219;53.678;9.856;2022-12-24T08:24:15;15.38;;;6.63;;
52838;SDS011;39219;53.678;9.856;2022-12-24T08:26:41;15.55;;;6.78;;
52838;SDS011;39219;53.678;9.856;2022-12-24T08:29:08;14.35;;;6.05;;
52838;SDS011;39219;53.678;9.856;2022-12-24T08:31:34;13.02;;;5.93;;
52838;SDS011;39219;53.678;9.856;2022-12-24T08:34:01;15.88;;;7.10;;
52838;SDS011;39219;53.678;9.856;2022-12-24T08:36:28;16.08;;;6.25;;
52838;SDS011;39219;53.678;9.856;2022-12-24T08:38:54;14.10;;;6.15;;
52838;SDS011;39219;53.678;9.856;2022-12-24T08:41:22;12.73;;;5.57;;
52838;SDS011;39219;53.678;9.856;2022-12-24T08:43:48;12.60;;;5.97;;
52838;SDS011;39219;53.678;9.856;2022-12-24T08:46:15;12.93;;;5.78;;
52838;SDS011;39219;53.678;9.856;2022-12-24T08:48:41;10.65;;;5.38;;
52838;SDS011;39219;53.678;9.856;2022-12-24T08:51:08;12.93;;;5.50;;
52838;SDS011;39219;53.678;9.856;2022-12-24T08:53:35;12.60;;;5.45;;
52838;SDS011;39219;53.678;9.856;2022-12-24T08:56:02;11.40;;;5.73;;
52838;SDS011;39219;53.678;9.856;2022-12-24T08:58:31;11.23;;;5.00;;
52838;SDS011;39219;53.678;9.856;2022-12-24T09:00:58;11.57;;;4.97;;
52838;SDS011;39219;53.678;9.856;2022-12-24T09:03:25;12.65;;;4.97;;
52838;SDS011;39219;53.678;9.856;2022-12-24T09:05:51;11.70;;;4.90;;
52838;SDS011;39219;53.678;9.856;2022-12-24T09:08:18;10.32;;;4.80;;
52838;SDS011;39219;53.678;9.856;2022-12-24T09:10:45;11.75;;;5.40;;
52838;SDS011;39219;53.678;9.856;2022-12-24T09:13:11;10.68;;;4.70;;
52838;SDS011;39219;53.678;9.856;2022-12-24T09:15:39;11.50;;;5.18;;
52838;SDS011;39219;53.678;9.856;2022-12-24T09:18:05;11.38;;;5.55;;
52838;SDS011;39219;53.678;9.856;2022-12-24T09:20:32;10.38;;;5.03;;
52838;SDS011;39219;53.678;9.856;2022-12-24T09:22:59;11.68;;;5.30;;
52838;SDS011;39219;53.678;9.856;2022-12-24T09:25:25;9.93;;;4.93;;
52838;SDS011;39219;53.678;9.856;2022-12-24T09:27:51;10.32;;;5.00;;
52838;SDS011;39219;53.678;9.856;2022-12-24T09:30:18;10.25;;;4.97;;
52838;SDS011;39219;53.678;9.856;2022-12-24T09:32:46;10.73;;;5.15;;
52838;SDS011;39219;53.678;9.856;2022-12-24T09:35:12;12.32;;;5.07;;
52838;SDS011;39219;53.678;9.856;2022-12-24T09:37:39;11.02;;;4.95;;
52838;SDS011;39219;53.678;9.856;2022-12-24T09:40:05;10.80;;;5.18;;
52838;SDS011;39219;53.678;9.856;2022-12-24T09:42:41;11.40;;;5.45;;
52838;SDS011;39219;53.678;9.856;2022-12-24T09:45:17;12.73;;;5.65;;
52838;SDS011;39219;53.678;9.856;2022-12-24T09:47:50;10.45;;;5.28;;
52838;SDS011;39219;53.678;9.856;2022-12-24T09:50:23;11.20;;;5.43;;
52838;SDS011;39219;53.678;9.856;2022-12-24T09:52:55;10.77;;;5.28;;
52838;SDS011;39219;53.678;9.856;2022-12-24T09:55:24;13.07;;;6.05;;
52838;SDS011;39219;53.678;9.856;2022-12-24T09:57:53;11.18;;;5.30;;
52838;SDS011;39219;53.678;9.856;2022-12-24T10:00:23;12.02;;;5.65;;
52838;SDS011;39219;53.678;9.856;2022-12-24T10:02:54;11.73;;;5.88;;
52838;SDS011;39219;53.678;9.856;2022-12-24T10:05:23;12.20;;;5.68;;
52838;SDS011;39219;53.678;9.856;2022-12-24T10:07:58;11.25;;;5.78;;
52838;SDS011;39219;53.678;9.856;2022-12-24T10:10:34;13.10;;;5.82;;
52838;SDS011;39219;53.678;9.856;2022-12-24T10:13:08;11.25;;;5.93;;
52838;SDS011;39219;53.678;9.856;2022-12-24T10:15:42;11.30;;;5.70;;
52838;SDS011;39219;53.678;9.856;2022-12-24T10:18:20;10.73;;;5.53;;
52838;SDS011;39219;53.678;9.856;2022-12-24T10:20:53;12.40;;;5.90;;
52838;SDS011;39219;53.678;9.856;2022-12-24T10:23:27;12.23;;;6.18;;
52838;SDS011;39219;53.678;9.856;2022-12-24T10:26:02;12.90;;;6.32;;
52838;SDS011;39219;53.678;9.856;2022-12-24T10:28:37;11.85;;;6.05;;
52838;SDS011;39219;53.678;9.856;2022-12-24T10:31:09;12.77;;;5.88;;
52838;SDS011;39219;53.678;9.856;2022-12-24T10:33:39;11.27;;;6.13;;
52838;SDS011;39219;53.678;9.856;2022-12-24T10:36:07;11.35;;;5.85;;
52838;SDS011;39219;53.678;9.856;2022-12-24T10:38:40;11.75;;;5.78;;
52838;SDS011;39219;53.678;9.856;2022-12-24T10:41:06;12.68;;;6.13;;
52838;SDS011;39219;53.678;9.856;2022-12-24T10:43:33;11.30;;;5.93;;
52838;SDS011;39219;53.678;9.856;2022-12-24T10:46:02;11.60;;;6.45;;
52838;SDS011;39219;53.678;9.856;2022-12-24T10:48:35;12.73;;;6.65;;
52838;SDS011;39219;53.678;9.856;2022-12-24T10:51:09;12.75;;;6.18;;
52838;SDS011;39219;53.678;9.856;2022-12-24T10:53:41;11.30;;;6.10;;
52838;SDS011;39219;53.678;9.856;2022-12-24T10:56:10;13.68;;;6.32;;
52838;SDS011;39219;53.678;9.856;2022-12-24T10:58:41;11.70;;;6.53;;
52838;SDS011;39219;53.678;9.856;2022-12-24T11:01:09;12.00;;;6.28;;
52838;SDS011;39219;53.678;9.856;2022-12-24T11:03:37;11.23;;;6.15;;
52838;SDS011;39219;53.678;9.856;2022-12-24T11:06:06;11.57;;;5.88;;
52838;SDS011;39219;53.678;9.856;2022-12-24T11:08:35;13.50;;;6.65;;
52838;SDS011;39219;53.678;9.856;2022-12-24T11:11:03;11.90;;;6.53;;
52838;SDS011;39219;53.678;9.856;2022-12-24T11:13:32;12.18;;;6.28;;
52838;SDS011;39219;53.678;9.856;2022-12-24T11:16:03;12.57;;;6.75;;
52838;SDS011;39219;53.678;9.856;2022-12-24T11:18:32;11.77;;;6.55;;
52838;SDS011;39219;53.678;9.856;2022-12-24T11:21:03;13.95;;;7.03;;
52838;SDS011;39219;53.678;9.856;2022-12-24T11:23:30;12.90;;;6.97;;
52838;SDS011;39219;53.678;9.856;2022-12-24T11:25:57;12.15;;;6.78;;
52838;SDS011;39219;53.678;9.856;2022-12-24T11:28:25;13.30;;;6.82;;
52838;SDS011;39219;53.678;9.856;2022-12-24T11:30:57;13.60;;;7.68;;
52838;SDS011;39219;53.678;9.856;2022-12-24T11:33:26;14.57;;;7.45;;
52838;SDS011;39219;53.678;9.856;2022-12-24T11:35:59;13.13;;;7.10;;
52838;SDS011;39219;53.678;9.856;2022-12-24T11:38:29;14.70;;;7.60;;
52838;SDS011;39219;53.678;9.856;2022-12-24T11:40:58;13.98;;;7.60;;
52838;SDS011;39219;53.678;9.856;2022-12-24T11:43:32;14.55;;;7.78;;
52838;SDS011;39219;53.678;9.856;2022-12-24T11:46:19;15.70;;;8.73;;
52838;SDS011;39219;53.678;9.856;2022-12-24T11:49:12;15.05;;;7.65;;
52838;SDS011;39219;53.678;9.856;2022-12-24T11:51:47;14.15;;;7.50;;
52838;SDS011;39219;53.678;9.856;2022-12-24T11:54:29;16.17;;;8.40;;
52838;SDS011;39219;53.678;9.856;2022-12-24T11:56:58;15.70;;;8.10;;
52838;SDS011;39219;53.678;9.856;2022-12-24T11:59:27;15.25;;;8.25;;
52838;SDS011;39219;53.678;9.856;2022-12-24T12:01:59;14.70;;;7.57;;
52838;SDS011;39219;53.678;9.856;2022-12-24T12:04:36;15.75;;;8.27;;
52838;SDS011;39219;53.678;9.856;2022-12-24T12:07:08;14.68;;;8.25;;
52838;SDS011;39219;53.678;9.856;2022-12-24T12:09:41;13.57;;;7.67;;
52838;SDS011;39219;53.678;9.856;2022-12-24T12:12:12;13.52;;;7.57;;
52838;SDS011;39219;53.678;9.856;2022-12-24T12:14:44;16.55;;;8.25;;
52838;SDS011;39219;53.678;9.856;2022-12-24T12:17:17;15.80;;;8.35;;
52838;SDS011;39219;53.678;9.856;2022-12-24T12:19:55;17.23;;;8.88;;
52838;SDS011;39219;53.678;9.856;2022-12-24T12:22:27;15.55;;;8.45;;
52838;SDS011;39219;53.678;9.856;2022-12-24T12:25:00;15.75;;;8.13;;
52838;SDS011;39219;53.678;9.856;2022-12-24T12:27:32;16.35;;;8.65;;
52838;SDS011;39219;53.678;9.856;2022-12-24T12:30:02;17.13;;;9.02;;
52838;SDS011;39219;53.678;9.856;2022-12-24T12:32:38;17.48;;;8.65;;
52838;SDS011;39219;53.678;9.856;2022-12-24T12:35:15;16.58;;;8.90;;
52838;SDS011;39219;53.678;9.856;2022-12-24T12:37:50;18.77;;;9.48;;
52838;SDS011;39219;53.678;9.856;2022-12-24T12:40:23;18.00;;;9.13;;
52838;SDS011;39219;53.678;9.856;2022-12-24T12:43:05;19.52;;;9.30;;
52838;SDS011;39219;53.678;9.856;2022-12-24T12:45:42;18.67;;;9.73;;
52838;SDS011;39219;53.678;9.856;2022-12-24T12:48:21;20.02;;;9.88;;
52838;SDS011;39219;53.678;9.856;2022-12-24T12:51:05;19.83;;;9.50;;
52838;SDS011;39219;53.678;9.856;2022-12-24T12:53:46;20.98;;;9.40;;
52838;SDS011;39219;53.678;9.856;2022-12-24T12:56:29;20.52;;;9.95;;
52838;SDS011;39219;53.678;9.856;2022-12-24T12:58:58;20.60;;;9.57;;
52838;SDS011;39219;53.678;9.856;2022-12-24T13:01:33;18.70;;;9.45;;
52838;SDS011;39219;53.678;9.856;2022-12-24T13:07:13;21.50;;;9.98;;
52838;SDS011;39219;53.678;9.856;2022-12-24T13:10:00;19.90;;;9.73;;
52838;SDS011;39219;53.678;9.856;2022-12-24T13:12:42;24.38;;;9.70;;
52838;SDS011;39219;53.678;9.856;2022-12-24T13:15:24;21.38;;;9.43;;
52838;SDS011;39219;53.678;9.856;2022-12-24T13:18:12;23.92;;;10.70;;
52838;SDS011;39219;53.678;9.856;2022-12-24T13:20:54;25.23;;;10.43;;
52838;SDS011;39219;53.678;9.856;2022-12-24T13:23:21;24.00;;;10.80;;
52838;SDS011;39219;53.678;9.856;2022-12-24T13:25:50;27.20;;;11.07;;
52838;SDS011;39219;53.678;9.856;2022-12-24T13:34:01;26.35;;;10.68;;
52838;SDS011;39219;53.678;9.856;2022-12-24T13:42:46;28.88;;;11.15;;
52838;SDS011;39219;53.678;9.856;2022-12-24T13:45:41;24.77;;;10.73;;
52838;SDS011;39219;53.678;9.856;2022-12-24T13:48:24;26.38;;;10.50;;
52838;SDS011;39219;53.678;9.856;2022-12-24T13:50:54;27.75;;;11.00;;
52838;SDS011;39219;53.678;9.856;2022-12-24T13:53:25;26.23;;;10.52;;
52838;SDS011;39219;53.678;9.856;2022-12-24T13:55:56;27.20;;;11.55;;
52838;SDS011;39219;53.678;9.856;2022-12-24T13:58:28;25.55;;;10.93;;
52838;SDS011;39219;53.678;9.856;2022-12-24T14:00:58;34.38;;;11.88;;
52838;SDS011;39219;53.678;9.856;2022-12-24T14:03:28;36.47;;;11.68;;
52838;SDS011;39219;53.678;9.856;2022-12-24T14:05:58;31.95;;;11.15;;
52838;SDS011;39219;53.678;9.856;2022-12-24T14:08:29;33.35;;;12.40;;
52838;SDS011;39219;53.678;9.856;2022-12-24T14:11:05;33.55;;;11.52;;
52838;SDS011;39219;53.678;9.856;2022-12-24T14:13:54;33.35;;;11.07;;
52838;SDS011;39219;53.678;9.856;2022-12-24T14:16:43;33.65;;;10.73;;
52838;SDS011;39219;53.678;9.856;2022-12-24T14:19:14;32.83;;;11.02;;
52838;SDS011;39219;53.678;9.856;2022-12-24T14:21:44;35.55;;;10.80;;
52838;SDS011;39219;53.678;9.856;2022-12-24T14:26:46;28.67;;;10.00;;
52838;SDS011;39219;53.678;9.856;2022-12-24T14:29:15;26.75;;;9.90;;
52838;SDS011;39219;53.678;9.856;2022-12-24T14:31:52;34.13;;;10.25;;
52838;SDS011;39219;53.678;9.856;2022-12-24T14:34:20;28.52;;;9.95;;
52838;SDS011;39219;53.678;9.856;2022-12-24T14:36:47;30.35;;;10.20;;
52838;SDS011;39219;53.678;9.856;2022-12-24T14:39:19;25.67;;;9.65;;
52838;SDS011;39219;53.678;9.856;2022-12-24T14:41:51;33.38;;;10.73;;
52838;SDS011;39219;53.678;9.856;2022-12-24T14:44:27;27.48;;;9.15;;
52838;SDS011;39219;53.678;9.856;2022-12-24T14:47:04;22.33;;;9.33;;
52838;SDS011;39219;53.678;9.856;2022-12-24T14:49:40;25.75;;;9.48;;
52838;SDS011;39219;53.678;9.856;2022-12-24T14:52:22;22.40;;;9.30;;
52838;SDS011;39219;53.678;9.856;2022-12-24T14:54:57;22.73;;;8.20;;
52838;SDS011;39219;53.678;9.856;2022-12-24T14:57:24;30.67;;;9.50;;
52838;SDS011;39219;53.678;9.856;2022-12-24T14:59:52;29.98;;;9.20;;
52838;SDS011;39219;53.678;9.856;2022-12-24T15:02:23;28.05;;;8.73;;
52838;SDS011;39219;53.678;9.856;2022-12-24T15:05:07;23.52;;;8.80;;
52838;SDS011;39219;53.678;9.856;2022-12-24T15:07:38;20.67;;;8.15;;
52838;SDS011;39219;53.678;9.856;2022-12-24T15:10:17;27.73;;;9.10;;